createdAt,value
2023-08-15T00:00:54.167Z,10.30
2023-08-15T00:03:21.875Z,10.40
2023-08-15T00:05:49.884Z,10.60
2023-08-15T00:08:17.343Z,9.80
2023-08-15T00:10:45.001Z,9.50
2023-08-15T00:13:12.458Z,9.30
2023-08-15T00:15:40.224Z,9.50
2023-08-15T00:18:08.138Z,10.10
2023-08-15T00:20:35.572Z,8.80
2023-08-15T00:23:03.109Z,9.40
2023-08-15T00:25:30.680Z,9.40
2023-08-15T00:27:58.335Z,10.20
2023-08-15T00:30:25.997Z,9.20
2023-08-15T00:32:53.481Z,12.10
2023-08-15T00:35:21.118Z,11.10
2023-08-15T00:37:48.687Z,11.30
2023-08-15T00:40:16.235Z,12.70
2023-08-15T00:42:43.799Z,13.00
2023-08-15T00:45:11.567Z,9.60
2023-08-15T00:47:39.724Z,9.50
2023-08-15T00:50:08.194Z,14.40
2023-08-15T00:52:37.065Z,9.30
2023-08-15T00:55:05.484Z,10.80
2023-08-15T00:57:32.887Z,8.40
2023-08-15T01:00:00.692Z,12.00
2023-08-15T01:02:28.342Z,11.40
2023-08-15T01:04:55.935Z,10.00
2023-08-15T01:07:23.553Z,13.90
2023-08-15T01:09:51.163Z,10.10
2023-08-15T01:12:45.596Z,11.20
2023-08-15T01:15:17.198Z,9.50
2023-08-15T01:17:49.907Z,11.60
2023-08-15T01:20:21.227Z,10.40
2023-08-15T01:22:49.002Z,10.90
2023-08-15T01:25:16.463Z,10.10
2023-08-15T01:27:45.447Z,10.60
2023-08-15T01:30:13.646Z,10.60
2023-08-15T01:32:50.061Z,10.70
2023-08-15T01:35:24.113Z,11.20
2023-08-15T01:38:02.487Z,11.70
2023-08-15T01:40:30.772Z,10.70
2023-08-15T01:42:59.856Z,11.20
2023-08-15T01:45:27.558Z,11.40
2023-08-15T01:47:56.185Z,11.70
2023-08-15T01:50:23.805Z,13.10
2023-08-15T01:52:51.361Z,12.80
2023-08-15T01:55:19.022Z,10.00
2023-08-15T01:57:46.482Z,11.20
2023-08-15T02:00:14.387Z,12.20
2023-08-15T02:02:44.910Z,15.30
2023-08-15T02:05:14.676Z,11.20
2023-08-15T02:07:42.356Z,11.00
2023-08-15T02:10:10.287Z,9.60
2023-08-15T02:12:38.088Z,12.40
2023-08-15T02:15:06.471Z,11.70
2023-08-15T02:17:34.101Z,10.80
2023-08-15T02:20:02.376Z,9.80
2023-08-15T02:22:31.194Z,9.70
2023-08-15T02:24:58.759Z,11.80
2023-08-15T02:27:27.748Z,12.10
2023-08-15T02:29:55.305Z,10.20
2023-08-15T02:32:23.090Z,13.50
2023-08-15T02:34:50.484Z,11.50
2023-08-15T02:37:18.032Z,11.20
2023-08-15T02:39:45.548Z,10.60
2023-08-15T02:42:13.210Z,12.30
2023-08-15T02:44:40.694Z,14.60
2023-08-15T02:47:08.239Z,9.50
2023-08-15T02:49:35.787Z,12.60
2023-08-15T02:52:03.172Z,10.00
2023-08-15T02:54:30.601Z,10.80
2023-08-15T02:56:58.179Z,10.20
2023-08-15T03:19:51.385Z,9.80
2023-08-15T03:22:18.476Z,9.50
2023-08-15T03:26:11.665Z,9.90
2023-08-15T03:28:49.087Z,13.10
2023-08-15T03:31:24.875Z,12.20
2023-08-15T03:33:55.035Z,10.80
2023-08-15T03:36:21.828Z,10.70
2023-08-15T03:38:48.881Z,11.80
2023-08-15T03:41:15.515Z,10.90
2023-08-15T03:43:42.803Z,11.40
2023-08-15T03:46:09.542Z,11.10
2023-08-15T03:48:36.662Z,12.40
2023-08-15T03:51:03.382Z,11.90
2023-08-15T03:53:34.601Z,11.10
2023-08-15T03:56:03.113Z,12.50
2023-08-15T03:58:30.938Z,15.20
2023-08-15T04:00:57.558Z,13.00
2023-08-15T04:03:24.318Z,11.90
2023-08-15T04:05:52.498Z,12.00
2023-08-15T04:08:19.204Z,10.70
2023-08-15T04:10:46.458Z,11.80
2023-08-15T04:13:13.229Z,12.00
2023-08-15T04:15:40.093Z,11.90
2023-08-15T04:18:11.296Z,16.80
2023-08-15T04:20:41.749Z,11.70
2023-08-15T04:23:11.370Z,13.30
2023-08-15T04:25:38.685Z,17.60
2023-08-15T04:28:06.249Z,12.40
2023-08-15T04:30:33.964Z,12.50
2023-08-15T04:33:00.669Z,11.70
2023-08-15T04:35:27.787Z,9.60
2023-08-15T04:37:54.702Z,14.80
2023-08-15T04:40:35.223Z,16.10
2023-08-15T04:43:03.048Z,11.30
2023-08-15T04:45:31.531Z,12.40
2023-08-15T04:47:58.679Z,12.80
2023-08-15T04:50:25.878Z,12.90
2023-08-15T04:52:52.648Z,17.40
2023-08-15T04:55:22.952Z,11.80
2023-08-15T05:03:48.811Z,10.10
2023-08-15T05:06:46.975Z,11.20
2023-08-15T05:09:27.867Z,16.70
2023-08-15T05:12:44.608Z,12.50
2023-08-15T05:15:39.027Z,14.50
2023-08-15T05:18:12.035Z,11.30
2023-08-15T05:20:58.453Z,11.30
2023-08-15T05:24:03.473Z,10.10
2023-08-15T05:35:21.822Z,11.50
2023-08-15T05:41:17.716Z,8.70
2023-08-15T05:44:01.335Z,10.30
2023-08-15T05:46:28.135Z,13.00
2023-08-15T05:48:54.925Z,13.10
2023-08-15T05:51:21.588Z,13.50
2023-08-15T05:53:48.508Z,12.70
2023-08-15T05:56:15.261Z,12.00
2023-08-15T05:58:42.025Z,11.70
2023-08-15T06:01:09.079Z,10.80
2023-08-15T06:03:51.302Z,13.90
2023-08-15T06:06:19.553Z,12.50
2023-08-15T06:08:49.260Z,12.10
2023-08-15T06:11:16.060Z,11.00
2023-08-15T06:13:49.239Z,10.50
2023-08-15T06:16:18.765Z,14.30
2023-08-15T06:18:45.818Z,13.10
2023-08-15T06:21:12.565Z,16.20
2023-08-15T06:23:39.456Z,10.90
2023-08-15T06:26:06.245Z,11.90
2023-08-15T06:28:33.195Z,14.10
2023-08-15T06:30:59.952Z,14.90
2023-08-15T06:33:26.678Z,9.80
2023-08-15T06:35:53.635Z,13.00
2023-08-15T06:38:20.255Z,12.60
2023-08-15T06:40:47.288Z,12.10
2023-08-15T06:43:14.067Z,11.70
2023-08-15T06:45:40.782Z,11.60
2023-08-15T06:48:07.591Z,10.60
2023-08-15T06:50:34.445Z,13.40
2023-08-15T06:53:01.314Z,15.40
2023-08-15T06:55:28.198Z,14.20
2023-08-15T06:57:55.001Z,11.20
2023-08-15T07:00:21.963Z,10.40
2023-08-15T07:02:49.626Z,10.80
2023-08-15T07:05:16.555Z,14.00
2023-08-15T07:07:43.197Z,11.00
2023-08-15T07:10:10.982Z,9.90
2023-08-15T07:13:12.720Z,9.40
2023-08-15T07:15:39.424Z,10.60
2023-08-15T07:18:06.354Z,11.20
2023-08-15T07:20:34.410Z,12.70
2023-08-15T07:23:01.416Z,10.20
2023-08-15T07:25:28.065Z,11.40
2023-08-15T07:27:54.866Z,11.60
2023-08-15T07:30:21.646Z,14.70
2023-08-15T07:32:48.252Z,10.90
2023-08-15T07:35:16.158Z,13.10
2023-08-15T07:37:42.995Z,12.40
2023-08-15T07:40:51.238Z,8.90
2023-08-15T07:43:57.195Z,8.00
2023-08-15T07:46:24.723Z,14.80
2023-08-15T07:48:51.504Z,8.40
2023-08-15T07:51:20.099Z,10.10
2023-08-15T07:53:53.043Z,10.00
2023-08-15T07:56:30.648Z,10.30
2023-08-15T07:59:04.625Z,8.10
2023-08-15T08:01:43.335Z,9.00
2023-08-15T08:05:17.664Z,9.70
2023-08-15T08:08:10.232Z,9.90
2023-08-15T08:10:44.174Z,8.10
2023-08-15T08:13:20.655Z,8.50
2023-08-15T08:15:47.890Z,6.60
2023-08-15T08:18:15.102Z,9.20
2023-08-15T08:20:42.241Z,8.00
2023-08-15T08:23:09.385Z,8.80
2023-08-15T08:25:36.740Z,6.40
2023-08-15T08:28:05.273Z,6.50
2023-08-15T08:30:34.857Z,7.00
2023-08-15T08:33:07.374Z,7.10
2023-08-15T08:35:36.638Z,7.30
2023-08-15T08:38:04.198Z,7.90
2023-08-15T08:40:32.248Z,8.70
2023-08-15T08:42:59.072Z,6.90
2023-08-15T08:45:35.181Z,9.10
2023-08-15T08:48:14.383Z,8.20
2023-08-15T08:50:41.878Z,6.90
2023-08-15T08:53:08.528Z,8.00
2023-08-15T08:56:09.428Z,6.90
2023-08-15T08:58:36.892Z,7.30
2023-08-15T09:01:12.346Z,6.00
2023-08-15T09:03:41.722Z,5.80
2023-08-15T09:06:51.688Z,8.50
2023-08-15T09:09:18.633Z,6.20
2023-08-15T09:11:48.118Z,7.10
2023-08-15T09:14:15.624Z,6.40
2023-08-15T09:19:41.396Z,7.00
2023-08-15T09:22:15.534Z,9.40
2023-08-15T09:24:47.914Z,8.40
2023-08-15T09:27:14.686Z,6.20
2023-08-15T09:29:45.627Z,6.80
2023-08-15T09:32:22.735Z,7.00
2023-08-15T09:34:52.714Z,7.40
2023-08-15T09:37:27.373Z,7.90
2023-08-15T09:40:01.752Z,7.10
2023-08-15T09:42:45.294Z,9.60
2023-08-15T09:45:17.390Z,8.10
2023-08-15T09:47:47.429Z,6.20
2023-08-15T09:50:14.819Z,5.80
2023-08-15T09:52:42.547Z,6.70
2023-08-15T09:55:35.159Z,6.90
2023-08-15T09:58:11.053Z,7.10
2023-08-15T10:00:51.898Z,7.00
2023-08-15T10:03:40.250Z,7.10
2023-08-15T10:07:03.849Z,7.80
2023-08-15T10:09:30.999Z,6.00
2023-08-15T10:12:02.392Z,7.70
2023-08-15T10:14:32.871Z,8.50
2023-08-15T10:17:21.575Z,6.00
2023-08-15T10:19:51.390Z,7.10
2023-08-15T10:22:24.498Z,7.00
2023-08-15T10:24:51.723Z,5.30
2023-08-15T10:27:20.258Z,5.50
2023-08-15T10:30:59.476Z,9.00
2023-08-15T10:34:01.705Z,6.80
2023-08-15T10:36:29.129Z,6.60
2023-08-15T10:38:56.290Z,8.30
2023-08-15T10:41:26.151Z,6.90
2023-08-15T10:43:56.618Z,8.50
2023-08-15T10:49:55.512Z,7.90
2023-08-15T10:52:22.697Z,8.00
2023-08-15T10:54:50.163Z,6.40
2023-08-15T10:57:17.609Z,6.50
2023-08-15T10:59:44.952Z,8.90
2023-08-15T11:02:12.449Z,7.00
2023-08-15T11:04:40.816Z,7.30
2023-08-15T11:07:09.781Z,5.50
2023-08-15T11:09:41.453Z,6.80
2023-08-15T11:12:10.093Z,7.00
2023-08-15T11:14:38.020Z,7.50
2023-08-15T11:17:09.827Z,7.70
2023-08-15T11:19:36.894Z,7.20
2023-08-15T11:22:05.824Z,8.10
2023-08-15T11:24:33.293Z,7.30
2023-08-15T11:27:02.004Z,7.10
2023-08-15T11:29:34.442Z,7.10
2023-08-15T11:32:01.892Z,7.40
2023-08-15T11:34:34.358Z,6.20
2023-08-15T11:37:01.366Z,6.90
2023-08-15T11:39:33.587Z,13.40
2023-08-15T11:42:01.831Z,6.20
2023-08-15T11:44:31.234Z,7.60
2023-08-15T11:47:02.003Z,9.60
2023-08-15T11:49:45.965Z,7.00
2023-08-15T11:52:23.152Z,8.00
2023-08-15T11:54:53.358Z,6.10
2023-08-15T11:57:36.302Z,8.90
2023-08-15T12:00:04.637Z,6.00
2023-08-15T12:02:35.489Z,5.40
2023-08-15T12:05:31.077Z,7.00
2023-08-15T12:07:58.246Z,8.40
2023-08-15T12:10:25.783Z,9.50
2023-08-15T12:12:53.241Z,8.30
2023-08-15T12:15:24.736Z,6.70
2023-08-15T12:17:51.812Z,7.60
2023-08-15T12:20:20.519Z,6.10
2023-08-15T12:22:50.486Z,7.80
2023-08-15T12:25:19.330Z,7.00
2023-08-15T12:27:48.473Z,5.90
2023-08-15T12:30:18.020Z,7.70
2023-08-15T12:32:54.176Z,7.00
2023-08-15T12:37:58.153Z,7.30
2023-08-15T12:40:30.912Z,9.20
2023-08-15T12:43:02.379Z,6.50
2023-08-15T12:45:30.234Z,7.80
2023-08-15T12:47:57.848Z,6.60
2023-08-15T12:50:25.881Z,7.60
2023-08-15T12:52:56.335Z,5.70
2023-08-15T12:55:23.997Z,7.70
2023-08-15T12:57:51.387Z,6.60
2023-08-15T13:00:18.988Z,7.10
2023-08-15T13:02:46.706Z,6.10
2023-08-15T13:05:14.174Z,6.60
2023-08-15T13:07:41.654Z,7.30
2023-08-15T13:10:09.177Z,7.50
2023-08-15T13:12:36.697Z,8.60
2023-08-15T13:15:06.600Z,6.90
2023-08-15T13:17:34.466Z,6.50
2023-08-15T13:20:02.134Z,6.20
2023-08-15T13:22:29.690Z,8.60
2023-08-15T13:24:57.296Z,6.40
2023-08-15T13:27:24.849Z,6.60
2023-08-15T13:29:52.405Z,7.70
2023-08-15T13:32:20.127Z,6.80
2023-08-15T13:34:48.032Z,7.00
2023-08-15T13:37:15.390Z,6.70
2023-08-15T13:39:42.918Z,7.00
2023-08-15T13:42:14.828Z,6.30
2023-08-15T13:44:51.043Z,9.00
2023-08-15T13:47:18.605Z,7.30
2023-08-15T13:49:46.060Z,6.90
2023-08-15T13:52:13.519Z,14.80
2023-08-15T13:54:41.079Z,9.50
2023-08-15T13:57:08.727Z,7.70
2023-08-15T13:59:36.715Z,7.30
2023-08-15T14:02:04.626Z,6.20
2023-08-15T14:04:32.968Z,5.80
2023-08-15T14:07:00.837Z,6.50
2023-08-15T14:09:29.029Z,6.70
2023-08-15T14:11:56.458Z,6.30
2023-08-15T14:14:24.021Z,8.10
2023-08-15T14:16:52.120Z,7.90
2023-08-15T14:19:19.494Z,6.50
2023-08-15T14:21:47.418Z,7.20
2023-08-15T14:24:14.924Z,6.60
2023-08-15T14:26:42.663Z,7.90
2023-08-15T14:29:10.007Z,9.20
2023-08-15T14:31:37.433Z,6.90
2023-08-15T14:34:05.160Z,10.00
2023-08-15T14:36:32.884Z,7.30
2023-08-15T14:39:00.439Z,8.70
2023-08-15T14:41:27.939Z,7.10
2023-08-15T14:43:55.459Z,8.90
2023-08-15T14:46:22.984Z,9.20
2023-08-15T14:48:50.576Z,9.20
2023-08-15T14:51:18.181Z,8.50
2023-08-15T14:53:45.641Z,7.40
2023-08-15T14:56:13.784Z,8.40
2023-08-15T14:58:42.693Z,9.90
2023-08-15T15:01:10.327Z,6.40
2023-08-15T15:03:37.850Z,6.10
2023-08-15T15:06:05.394Z,9.00
2023-08-15T15:08:32.931Z,7.30
2023-08-15T15:11:02.717Z,7.40
2023-08-15T15:13:30.390Z,7.50
2023-08-15T15:15:57.949Z,6.30
2023-08-15T15:18:25.527Z,7.00
2023-08-15T15:34:19.473Z,6.80
2023-08-15T15:36:48.084Z,13.70
2023-08-15T15:39:14.916Z,8.70
2023-08-15T15:41:41.646Z,8.50
2023-08-15T15:44:08.425Z,7.70
2023-08-15T15:46:48.856Z,7.60
2023-08-15T15:49:19.861Z,8.30
2023-08-15T15:51:46.342Z,7.60
2023-08-15T15:54:13.367Z,7.40
2023-08-15T15:56:40.215Z,7.90
2023-08-15T15:59:06.950Z,8.30
2023-08-15T16:01:33.917Z,8.10
2023-08-15T16:04:00.613Z,8.40
2023-08-15T16:06:27.583Z,6.70
2023-08-15T16:08:57.194Z,8.00
2023-08-15T16:11:24.146Z,8.10
2023-08-15T16:13:51.709Z,6.70
2023-08-15T16:16:18.445Z,7.70
2023-08-15T16:18:45.073Z,8.00
2023-08-15T16:21:12.004Z,6.70
2023-08-15T16:23:38.574Z,7.20
2023-08-15T16:26:05.235Z,10.20
2023-08-15T16:28:32.038Z,7.60
2023-08-15T16:30:58.676Z,7.90
2023-08-15T16:33:25.155Z,10.30
2023-08-15T16:35:52.567Z,6.90
2023-08-15T16:38:19.408Z,6.80
2023-08-15T16:40:46.050Z,7.30
2023-08-15T16:43:15.276Z,9.00
2023-08-15T16:45:42.516Z,5.80
2023-08-15T16:48:09.405Z,6.70
2023-08-15T16:50:37.212Z,8.70
2023-08-15T16:53:04.101Z,5.80
2023-08-15T16:55:31.105Z,7.30
2023-08-15T16:57:58.094Z,6.70
2023-08-15T17:00:25.814Z,6.50
2023-08-15T17:02:53.500Z,8.70
2023-08-15T17:05:20.526Z,6.30
2023-08-15T17:07:47.364Z,6.90
2023-08-15T17:10:14.422Z,8.70
2023-08-15T17:12:41.348Z,7.30
2023-08-15T17:15:08.715Z,7.50
2023-08-15T17:17:35.343Z,9.10
2023-08-15T17:20:02.072Z,11.00
2023-08-15T17:22:30.798Z,7.40
2023-08-15T17:24:57.352Z,6.00
2023-08-15T17:27:24.087Z,7.80
2023-08-15T17:29:51.615Z,7.60
2023-08-15T17:32:18.457Z,9.00
2023-08-15T17:34:45.200Z,8.00
2023-08-15T17:37:11.940Z,10.10
2023-08-15T17:39:38.579Z,9.90
2023-08-15T17:42:05.732Z,7.50
2023-08-15T17:44:32.573Z,8.30
2023-08-15T17:46:59.238Z,8.70
2023-08-15T17:49:25.952Z,7.80
2023-08-15T17:51:52.669Z,7.80
2023-08-15T17:54:19.436Z,7.90
2023-08-15T17:56:46.029Z,8.30
2023-08-15T17:59:12.583Z,7.40
2023-08-15T18:01:39.520Z,10.60
2023-08-15T18:04:06.358Z,10.80
2023-08-15T18:06:34.239Z,8.40
2023-08-15T18:09:01.626Z,7.80
2023-08-15T18:11:28.224Z,10.60
2023-08-15T18:13:54.943Z,8.70
2023-08-15T18:16:21.619Z,9.00
2023-08-15T18:18:48.434Z,7.80
2023-08-15T18:21:15.129Z,7.70
2023-08-15T18:23:41.867Z,9.70
2023-08-15T18:26:08.504Z,8.40
2023-08-15T18:28:35.559Z,10.30
2023-08-15T18:31:02.190Z,8.50
2023-08-15T18:33:29.111Z,9.80
2023-08-15T18:35:56.593Z,8.50
2023-08-15T18:38:23.441Z,9.70
2023-08-15T18:40:50.138Z,8.90
2023-08-15T18:43:16.836Z,8.70
2023-08-15T18:45:47.066Z,8.70
2023-08-15T18:48:15.154Z,9.60
2023-08-15T18:50:42.610Z,9.20
2023-08-15T18:53:09.314Z,8.00
2023-08-15T18:55:36.097Z,9.40
2023-08-15T18:58:03.125Z,8.90
2023-08-15T19:00:29.687Z,8.30
2023-08-15T19:02:56.343Z,10.30
2023-08-15T19:05:23.052Z,9.10
2023-08-15T19:07:49.792Z,8.60
2023-08-15T19:10:16.494Z,10.00
2023-08-15T19:12:43.261Z,11.20
2023-08-15T19:15:16.753Z,9.30
2023-08-15T19:17:43.810Z,11.90
2023-08-15T19:20:11.448Z,11.20
2023-08-15T19:22:38.425Z,16.70
2023-08-15T19:25:05.863Z,10.10
2023-08-15T19:27:32.516Z,9.70
2023-08-15T19:29:59.328Z,10.30
2023-08-15T19:32:26.419Z,8.90
2023-08-15T19:34:53.015Z,9.70
2023-08-15T19:37:31.057Z,10.50
2023-08-15T19:40:04.052Z,9.20
2023-08-15T19:42:31.023Z,9.60
2023-08-15T19:44:57.463Z,9.30
2023-08-15T19:47:24.303Z,10.00
2023-08-15T19:49:50.896Z,8.80
2023-08-15T19:52:17.784Z,9.90
2023-08-15T19:54:44.420Z,11.90
2023-08-15T19:57:11.035Z,11.90
2023-08-15T19:59:37.850Z,8.30
2023-08-15T20:02:04.783Z,13.00
2023-08-15T20:04:31.557Z,9.40
2023-08-15T20:06:58.267Z,9.20
2023-08-15T20:09:24.780Z,7.90
2023-08-15T20:11:52.529Z,9.80
2023-08-15T20:14:19.070Z,8.90
2023-08-15T20:16:45.737Z,9.60
2023-08-15T20:19:12.410Z,9.70
2023-08-15T20:21:39.940Z,10.40
2023-08-15T20:24:07.397Z,8.10
2023-08-15T20:26:34.285Z,10.90
2023-08-15T20:29:00.892Z,10.50
2023-08-15T20:31:27.600Z,13.20
2023-08-15T20:33:54.328Z,12.20
2023-08-15T20:36:21.204Z,11.60
2023-08-15T20:38:47.946Z,10.50
2023-08-15T20:41:14.582Z,14.10
2023-08-15T20:43:41.234Z,17.20
2023-08-15T20:46:07.910Z,13.60
2023-08-15T20:48:34.598Z,13.70
2023-08-15T20:51:01.340Z,15.60
2023-08-15T20:53:27.878Z,12.30
2023-08-15T20:55:54.825Z,15.40
2023-08-15T20:58:21.460Z,11.40
2023-08-15T21:00:48.436Z,11.60
2023-08-15T21:03:15.198Z,11.80
2023-08-15T21:05:42.810Z,12.90
2023-08-15T21:08:09.430Z,14.50
2023-08-15T21:10:36.207Z,13.40
2023-08-15T21:13:03.039Z,19.70
2023-08-15T21:15:29.613Z,12.70
2023-08-15T21:17:56.235Z,12.70
2023-08-15T21:20:23.775Z,17.10
2023-08-15T21:22:50.901Z,12.70
2023-08-15T21:25:17.792Z,13.60
2023-08-15T21:27:44.601Z,12.50
2023-08-15T21:30:11.445Z,14.30
2023-08-15T21:32:38.147Z,15.20
2023-08-15T21:35:05.462Z,12.30
2023-08-15T21:37:32.302Z,12.70
2023-08-15T21:39:58.920Z,12.70
2023-08-15T21:42:25.770Z,13.90
2023-08-15T21:44:52.331Z,14.50
2023-08-15T21:47:19.196Z,13.10
2023-08-15T21:49:46.196Z,12.80
2023-08-15T21:52:12.831Z,13.90
2023-08-15T21:54:39.408Z,16.20
2023-08-15T21:57:06.191Z,15.10
2023-08-15T21:59:33.366Z,12.20
2023-08-15T22:02:00.582Z,11.60
2023-08-15T22:04:27.573Z,12.90
2023-08-15T22:06:54.220Z,12.90
2023-08-15T22:09:21.661Z,12.50
2023-08-15T22:11:48.400Z,12.40
2023-08-15T22:14:17.420Z,13.10
2023-08-15T22:16:44.510Z,12.20
2023-08-15T22:19:11.042Z,12.70
2023-08-15T22:21:37.819Z,20.30
2023-08-15T22:24:04.990Z,13.30
2023-08-15T22:26:32.236Z,11.70
2023-08-15T22:28:59.070Z,12.30
2023-08-15T22:31:25.849Z,12.10
2023-08-15T22:33:52.652Z,11.90
2023-08-15T22:36:19.315Z,12.10
2023-08-15T22:38:45.980Z,11.50
2023-08-15T22:41:12.522Z,14.40
2023-08-15T22:43:39.180Z,12.30
2023-08-15T22:46:05.930Z,12.30
2023-08-15T22:48:32.687Z,12.00
2023-08-15T22:50:59.328Z,12.60
2023-08-15T22:53:26.100Z,11.70
2023-08-15T22:56:02.140Z,13.10
2023-08-15T22:58:29.079Z,13.30
2023-08-15T23:00:56.875Z,13.10
2023-08-15T23:03:24.418Z,11.20
2023-08-15T23:05:51.448Z,12.00
2023-08-15T23:08:18.219Z,12.30
2023-08-15T23:10:52.300Z,11.90
2023-08-15T23:13:19.137Z,12.60
2023-08-15T23:15:45.629Z,12.30
2023-08-15T23:18:12.951Z,11.80
2023-08-15T23:20:39.650Z,12.40
2023-08-15T23:23:06.110Z,10.90
2023-08-15T23:25:32.571Z,12.50
2023-08-15T23:27:59.178Z,13.00
2023-08-15T23:30:25.936Z,12.20
2023-08-15T23:32:52.713Z,12.60
2023-08-15T23:35:19.512Z,12.70
2023-08-15T23:37:46.151Z,11.70
2023-08-15T23:40:13.205Z,11.90
2023-08-15T23:42:40.215Z,11.20
2023-08-15T23:45:08.247Z,12.00
2023-08-15T23:47:35.325Z,12.60
2023-08-15T23:50:03.247Z,13.40
2023-08-15T23:52:30.149Z,12.20
2023-08-15T23:54:57.468Z,11.80
2023-08-15T23:57:24.660Z,12.60
2023-08-15T23:59:51.934Z,12.70
